WKL weather

Public forecast

Using degrees Fahrenheit for public forecast. Weather courtesy of forecast.io.

Closest aviation weather report (METAR) to Waikoloa Heliport

Closest report is Ellison Onizuka Kona International At Keahole Airport, 15.1 nm (28.0 km) SW. Retrieved 2020/08/12 23:53 UTC (25 minutes ago):

PHKO 122353Z 25009KT 10SM SCT040 BKN060 29/21 A2991

Closest aviation forecast (TAF) to Waikoloa Heliport

Closest forecast is Ellison Onizuka Kona International At Keahole Airport, 15.1 nm (28.0 km) SW. Retrieved 2020-08-13 00:42 UTC (0 seconds ago):

TAF PHKO 122340Z 1300/1324 22010KT P6SM SCT060 FM130800 06008KT P6SM FEW040 SCT060 FM132100 21011KT P6SM SCT050